sensor_id;sensor_type;location;lat;lon;timestamp;P1;durP1;ratioP1;P2;durP2;ratioP2
7289;SDS011;63176;52.678;13.250;2022-11-20T00:02:24;7.80;;;3.67;;
7289;SDS011;63176;52.678;13.250;2022-11-20T00:04:50;6.63;;;4.55;;
7289;SDS011;63176;52.678;13.250;2022-11-20T00:07:16;8.27;;;4.50;;
7289;SDS011;63176;52.678;13.250;2022-11-20T00:09:42;5.90;;;4.20;;
7289;SDS011;63176;52.678;13.250;2022-11-20T00:12:07;7.83;;;4.40;;
7289;SDS011;63176;52.678;13.250;2022-11-20T00:14:33;7.57;;;4.50;;
7289;SDS011;63176;52.678;13.250;2022-11-20T00:16:58;5.83;;;4.10;;
7289;SDS011;63176;52.678;13.250;2022-11-20T00:19:24;5.70;;;3.30;;
7289;SDS011;63176;52.678;13.250;2022-11-20T00:21:50;6.47;;;4.00;;
7289;SDS011;63176;52.678;13.250;2022-11-20T00:24:18;5.68;;;3.80;;
7289;SDS011;63176;52.678;13.250;2022-11-20T00:26:44;8.13;;;5.10;;
7289;SDS011;63176;52.678;13.250;2022-11-20T00:29:11;6.35;;;3.75;;
7289;SDS011;63176;52.678;13.250;2022-11-20T00:31:36;7.70;;;4.23;;
7289;SDS011;63176;52.678;13.250;2022-11-20T00:34:02;5.70;;;4.17;;
7289;SDS011;63176;52.678;13.250;2022-11-20T00:36:28;6.40;;;3.90;;
7289;SDS011;63176;52.678;13.250;2022-11-20T00:38:57;6.15;;;4.07;;
7289;SDS011;63176;52.678;13.250;2022-11-20T00:41:24;8.15;;;4.75;;
7289;SDS011;63176;52.678;13.250;2022-11-20T00:43:52;8.43;;;4.63;;
7289;SDS011;63176;52.678;13.250;2022-11-20T00:46:20;6.85;;;3.20;;
7289;SDS011;63176;52.678;13.250;2022-11-20T00:48:48;5.72;;;3.75;;
7289;SDS011;63176;52.678;13.250;2022-11-20T00:51:15;6.43;;;3.80;;
7289;SDS011;63176;52.678;13.250;2022-11-20T00:53:42;7.72;;;5.22;;
7289;SDS011;63176;52.678;13.250;2022-11-20T00:56:12;6.10;;;3.53;;
7289;SDS011;63176;52.678;13.250;2022-11-20T00:58:40;8.15;;;3.45;;
7289;SDS011;63176;52.678;13.250;2022-11-20T01:01:17;4.10;;;3.70;;
7289;SDS011;63176;52.678;13.250;2022-11-20T01:03:49;8.43;;;4.63;;
7289;SDS011;63176;52.678;13.250;2022-11-20T01:06:17;6.38;;;4.15;;
7289;SDS011;63176;52.678;13.250;2022-11-20T01:08:46;5.00;;;3.47;;
7289;SDS011;63176;52.678;13.250;2022-11-20T01:11:19;8.55;;;3.92;;
7289;SDS011;63176;52.678;13.250;2022-11-20T01:13:48;5.63;;;3.92;;
7289;SDS011;63176;52.678;13.250;2022-11-20T01:16:16;6.00;;;4.05;;
7289;SDS011;63176;52.678;13.250;2022-11-20T01:18:42;6.95;;;3.70;;
7289;SDS011;63176;52.678;13.250;2022-11-20T01:21:10;7.00;;;3.60;;
7289;SDS011;63176;52.678;13.250;2022-11-20T01:23:41;4.70;;;3.88;;
7289;SDS011;63176;52.678;13.250;2022-11-20T01:26:09;6.25;;;4.10;;
7289;SDS011;63176;52.678;13.250;2022-11-20T01:28:38;10.05;;;4.05;;
7289;SDS011;63176;52.678;13.250;2022-11-20T01:31:10;5.38;;;3.97;;
7289;SDS011;63176;52.678;13.250;2022-11-20T01:33:41;7.53;;;4.10;;
7289;SDS011;63176;52.678;13.250;2022-11-20T01:36:07;8.50;;;4.05;;
7289;SDS011;63176;52.678;13.250;2022-11-20T01:38:34;6.22;;;3.85;;
7289;SDS011;63176;52.678;13.250;2022-11-20T01:41:00;7.10;;;3.50;;
7289;SDS011;63176;52.678;13.250;2022-11-20T01:43:25;9.00;;;4.20;;
7289;SDS011;63176;52.678;13.250;2022-11-20T01:48:38;6.97;;;3.15;;
7289;SDS011;63176;52.678;13.250;2022-11-20T01:51:23;8.45;;;4.10;;
7289;SDS011;63176;52.678;13.250;2022-11-20T01:53:52;8.48;;;4.10;;
7289;SDS011;63176;52.678;13.250;2022-11-20T01:56:19;6.43;;;3.55;;
7289;SDS011;63176;52.678;13.250;2022-11-20T01:58:49;8.35;;;3.90;;
7289;SDS011;63176;52.678;13.250;2022-11-20T02:01:21;7.50;;;4.35;;
7289;SDS011;63176;52.678;13.250;2022-11-20T02:03:47;4.83;;;3.80;;
7289;SDS011;63176;52.678;13.250;2022-11-20T02:08:49;6.18;;;3.88;;
7289;SDS011;63176;52.678;13.250;2022-11-20T02:11:15;6.60;;;4.50;;
7289;SDS011;63176;52.678;13.250;2022-11-20T02:13:41;9.90;;;4.43;;
7289;SDS011;63176;52.678;13.250;2022-11-20T02:16:13;5.32;;;3.55;;
7289;SDS011;63176;52.678;13.250;2022-11-20T02:18:39;5.53;;;3.50;;
7289;SDS011;63176;52.678;13.250;2022-11-20T02:21:07;8.27;;;4.45;;
7289;SDS011;63176;52.678;13.250;2022-11-20T02:23:52;7.00;;;3.55;;
7289;SDS011;63176;52.678;13.250;2022-11-20T02:26:23;7.32;;;4.43;;
7289;SDS011;63176;52.678;13.250;2022-11-20T02:28:51;10.48;;;4.43;;
7289;SDS011;63176;52.678;13.250;2022-11-20T02:31:17;8.10;;;4.70;;
7289;SDS011;63176;52.678;13.250;2022-11-20T02:33:42;5.57;;;3.47;;
7289;SDS011;63176;52.678;13.250;2022-11-20T02:36:09;10.63;;;4.87;;
7289;SDS011;63176;52.678;13.250;2022-11-20T02:38:39;8.80;;;4.88;;
7289;SDS011;63176;52.678;13.250;2022-11-20T02:41:05;8.63;;;4.83;;
7289;SDS011;63176;52.678;13.250;2022-11-20T02:43:30;7.90;;;3.97;;
7289;SDS011;63176;52.678;13.250;2022-11-20T02:45:56;6.70;;;4.40;;
7289;SDS011;63176;52.678;13.250;2022-11-20T02:48:21;5.97;;;3.80;;
7289;SDS011;63176;52.678;13.250;2022-11-20T02:50:47;7.83;;;4.67;;
7289;SDS011;63176;52.678;13.250;2022-11-20T02:53:13;10.80;;;3.77;;
7289;SDS011;63176;52.678;13.250;2022-11-20T02:55:38;10.83;;;4.17;;
7289;SDS011;63176;52.678;13.250;2022-11-20T02:58:04;9.27;;;4.50;;
7289;SDS011;63176;52.678;13.250;2022-11-20T03:00:30;7.63;;;4.20;;
7289;SDS011;63176;52.678;13.250;2022-11-20T03:02:56;8.80;;;5.15;;
7289;SDS011;63176;52.678;13.250;2022-11-20T03:05:22;7.90;;;4.63;;
7289;SDS011;63176;52.678;13.250;2022-11-20T03:07:48;6.57;;;4.40;;
7289;SDS011;63176;52.678;13.250;2022-11-20T03:10:13;7.30;;;4.87;;
7289;SDS011;63176;52.678;13.250;2022-11-20T03:12:39;9.10;;;4.80;;
7289;SDS011;63176;52.678;13.250;2022-11-20T03:15:05;8.03;;;5.70;;
7289;SDS011;63176;52.678;13.250;2022-11-20T03:17:31;10.50;;;5.00;;
7289;SDS011;63176;52.678;13.250;2022-11-20T03:19:56;7.93;;;4.80;;
7289;SDS011;63176;52.678;13.250;2022-11-20T03:22:22;8.67;;;4.33;;
7289;SDS011;63176;52.678;13.250;2022-11-20T03:24:47;8.27;;;4.70;;
7289;SDS011;63176;52.678;13.250;2022-11-20T03:27:13;9.33;;;4.87;;
7289;SDS011;63176;52.678;13.250;2022-11-20T03:29:39;8.40;;;4.70;;
7289;SDS011;63176;52.678;13.250;2022-11-20T03:32:04;8.23;;;5.23;;
7289;SDS011;63176;52.678;13.250;2022-11-20T03:34:30;7.47;;;4.27;;
7289;SDS011;63176;52.678;13.250;2022-11-20T03:36:56;9.10;;;5.00;;
7289;SDS011;63176;52.678;13.250;2022-11-20T03:39:21;9.17;;;4.80;;
7289;SDS011;63176;52.678;13.250;2022-11-20T03:41:47;10.43;;;5.40;;
7289;SDS011;63176;52.678;13.250;2022-11-20T03:44:12;7.37;;;4.60;;
7289;SDS011;63176;52.678;13.250;2022-11-20T03:46:38;7.70;;;4.73;;
7289;SDS011;63176;52.678;13.250;2022-11-20T03:49:04;7.93;;;5.50;;
7289;SDS011;63176;52.678;13.250;2022-11-20T03:51:31;9.82;;;5.03;;
7289;SDS011;63176;52.678;13.250;2022-11-20T03:54:00;8.18;;;5.07;;
7289;SDS011;63176;52.678;13.250;2022-11-20T03:56:31;10.85;;;5.93;;
7289;SDS011;63176;52.678;13.250;2022-11-20T03:58:59;11.52;;;4.95;;
7289;SDS011;63176;52.678;13.250;2022-11-20T04:01:26;12.27;;;5.97;;
7289;SDS011;63176;52.678;13.250;2022-11-20T04:03:59;10.05;;;4.55;;
7289;SDS011;63176;52.678;13.250;2022-11-20T04:06:29;8.00;;;5.00;;
7289;SDS011;63176;52.678;13.250;2022-11-20T04:08:58;7.35;;;4.65;;
7289;SDS011;63176;52.678;13.250;2022-11-20T04:11:25;9.10;;;4.83;;
7289;SDS011;63176;52.678;13.250;2022-11-20T04:13:52;9.25;;;4.65;;
7289;SDS011;63176;52.678;13.250;2022-11-20T04:16:19;11.23;;;5.35;;
7289;SDS011;63176;52.678;13.250;2022-11-20T04:18:46;6.53;;;4.60;;
7289;SDS011;63176;52.678;13.250;2022-11-20T04:21:12;8.60;;;5.10;;
7289;SDS011;63176;52.678;13.250;2022-11-20T04:23:38;10.70;;;5.10;;
7289;SDS011;63176;52.678;13.250;2022-11-20T04:26:04;9.70;;;5.10;;
7289;SDS011;63176;52.678;13.250;2022-11-20T04:28:34;9.50;;;5.90;;
7289;SDS011;63176;52.678;13.250;2022-11-20T04:31:07;9.95;;;5.40;;
7289;SDS011;63176;52.678;13.250;2022-11-20T04:33:35;9.27;;;5.05;;
7289;SDS011;63176;52.678;13.250;2022-11-20T04:38:32;7.38;;;3.78;;
7289;SDS011;63176;52.678;13.250;2022-11-20T04:40:58;12.27;;;6.50;;
7289;SDS011;63176;52.678;13.250;2022-11-20T04:43:25;9.52;;;5.50;;
7289;SDS011;63176;52.678;13.250;2022-11-20T04:45:52;9.10;;;5.00;;
7289;SDS011;63176;52.678;13.250;2022-11-20T04:48:18;12.23;;;5.97;;
7289;SDS011;63176;52.678;13.250;2022-11-20T04:50:43;7.97;;;4.97;;
7289;SDS011;63176;52.678;13.250;2022-11-20T04:53:09;9.97;;;5.73;;
7289;SDS011;63176;52.678;13.250;2022-11-20T04:55:34;9.50;;;5.87;;
7289;SDS011;63176;52.678;13.250;2022-11-20T04:58:00;10.00;;;5.17;;
7289;SDS011;63176;52.678;13.250;2022-11-20T05:00:25;11.57;;;6.13;;
7289;SDS011;63176;52.678;13.250;2022-11-20T05:02:51;11.77;;;5.80;;
7289;SDS011;63176;52.678;13.250;2022-11-20T05:05:17;11.57;;;5.43;;
7289;SDS011;63176;52.678;13.250;2022-11-20T05:07:43;12.32;;;6.07;;
7289;SDS011;63176;52.678;13.250;2022-11-20T05:10:08;9.33;;;5.23;;
7289;SDS011;63176;52.678;13.250;2022-11-20T05:12:34;11.17;;;6.10;;
7289;SDS011;63176;52.678;13.250;2022-11-20T05:15:00;9.10;;;5.03;;
7289;SDS011;63176;52.678;13.250;2022-11-20T05:17:25;10.83;;;5.90;;
7289;SDS011;63176;52.678;13.250;2022-11-20T05:19:51;13.37;;;5.87;;
7289;SDS011;63176;52.678;13.250;2022-11-20T05:22:16;11.10;;;5.80;;
7289;SDS011;63176;52.678;13.250;2022-11-20T05:24:42;11.90;;;6.10;;
7289;SDS011;63176;52.678;13.250;2022-11-20T05:27:08;11.47;;;6.10;;
7289;SDS011;63176;52.678;13.250;2022-11-20T05:29:33;9.30;;;5.80;;
7289;SDS011;63176;52.678;13.250;2022-11-20T05:31:59;10.23;;;5.27;;
7289;SDS011;63176;52.678;13.250;2022-11-20T05:34:24;8.47;;;5.50;;
7289;SDS011;63176;52.678;13.250;2022-11-20T05:36:50;9.37;;;5.10;;
7289;SDS011;63176;52.678;13.250;2022-11-20T05:39:16;11.13;;;6.80;;
7289;SDS011;63176;52.678;13.250;2022-11-20T05:41:41;13.20;;;6.17;;
7289;SDS011;63176;52.678;13.250;2022-11-20T05:44:09;9.87;;;5.50;;
7289;SDS011;63176;52.678;13.250;2022-11-20T05:46:36;12.13;;;6.25;;
7289;SDS011;63176;52.678;13.250;2022-11-20T05:49:01;8.70;;;5.07;;
7289;SDS011;63176;52.678;13.250;2022-11-20T05:51:27;10.27;;;5.27;;
7289;SDS011;63176;52.678;13.250;2022-11-20T05:53:53;11.17;;;5.17;;
7289;SDS011;63176;52.678;13.250;2022-11-20T05:56:21;10.85;;;5.65;;
7289;SDS011;63176;52.678;13.250;2022-11-20T05:58:47;7.05;;;4.25;;
7289;SDS011;63176;52.678;13.250;2022-11-20T06:01:18;9.63;;;5.65;;
7289;SDS011;63176;52.678;13.250;2022-11-20T06:03:45;10.52;;;5.28;;
7289;SDS011;63176;52.678;13.250;2022-11-20T06:06:12;13.25;;;6.20;;
7289;SDS011;63176;52.678;13.250;2022-11-20T06:08:39;7.95;;;5.20;;
7289;SDS011;63176;52.678;13.250;2022-11-20T06:11:05;10.70;;;5.93;;
7289;SDS011;63176;52.678;13.250;2022-11-20T06:13:33;10.65;;;5.68;;
7289;SDS011;63176;52.678;13.250;2022-11-20T06:15:59;9.23;;;5.15;;
7289;SDS011;63176;52.678;13.250;2022-11-20T06:18:25;11.93;;;6.10;;
7289;SDS011;63176;52.678;13.250;2022-11-20T06:23:30;10.82;;;6.38;;
7289;SDS011;63176;52.678;13.250;2022-11-20T06:25:57;8.38;;;4.97;;
7289;SDS011;63176;52.678;13.250;2022-11-20T06:28:27;8.10;;;5.93;;
7289;SDS011;63176;52.678;13.250;2022-11-20T06:30:53;7.50;;;4.37;;
7289;SDS011;63176;52.678;13.250;2022-11-20T06:33:19;8.87;;;5.47;;
7289;SDS011;63176;52.678;13.250;2022-11-20T06:35:44;9.73;;;5.63;;
7289;SDS011;63176;52.678;13.250;2022-11-20T06:38:10;9.20;;;5.40;;
7289;SDS011;63176;52.678;13.250;2022-11-20T06:40:35;11.43;;;6.77;;
7289;SDS011;63176;52.678;13.250;2022-11-20T06:43:04;9.90;;;5.95;;
7289;SDS011;63176;52.678;13.250;2022-11-20T06:45:30;12.50;;;6.60;;
7289;SDS011;63176;52.678;13.250;2022-11-20T06:47:56;13.83;;;6.83;;
7289;SDS011;63176;52.678;13.250;2022-11-20T06:50:23;11.48;;;6.25;;
7289;SDS011;63176;52.678;13.250;2022-11-20T06:52:48;13.67;;;6.00;;
7289;SDS011;63176;52.678;13.250;2022-11-20T06:55:14;11.30;;;6.30;;
7289;SDS011;63176;52.678;13.250;2022-11-20T06:57:40;9.63;;;5.27;;
7289;SDS011;63176;52.678;13.250;2022-11-20T07:00:05;12.60;;;6.27;;
7289;SDS011;63176;52.678;13.250;2022-11-20T07:02:31;11.70;;;6.75;;
7289;SDS011;63176;52.678;13.250;2022-11-20T07:04:57;13.93;;;6.90;;
7289;SDS011;63176;52.678;13.250;2022-11-20T07:07:23;10.13;;;5.00;;
7289;SDS011;63176;52.678;13.250;2022-11-20T07:09:48;11.10;;;5.80;;
7289;SDS011;63176;52.678;13.250;2022-11-20T07:12:14;8.70;;;5.40;;
7289;SDS011;63176;52.678;13.250;2022-11-20T07:14:40;11.80;;;6.40;;
7289;SDS011;63176;52.678;13.250;2022-11-20T07:17:05;13.03;;;7.07;;
7289;SDS011;63176;52.678;13.250;2022-11-20T07:19:31;11.70;;;5.50;;
7289;SDS011;63176;52.678;13.250;2022-11-20T07:21:56;8.40;;;5.63;;
7289;SDS011;63176;52.678;13.250;2022-11-20T07:24:22;8.63;;;5.57;;
7289;SDS011;63176;52.678;13.250;2022-11-20T07:26:48;7.80;;;5.23;;
7289;SDS011;63176;52.678;13.250;2022-11-20T07:29:14;10.53;;;5.73;;
7289;SDS011;63176;52.678;13.250;2022-11-20T07:31:41;10.90;;;5.75;;
7289;SDS011;63176;52.678;13.250;2022-11-20T07:34:07;11.85;;;5.72;;
7289;SDS011;63176;52.678;13.250;2022-11-20T07:36:33;15.70;;;7.37;;
7289;SDS011;63176;52.678;13.250;2022-11-20T07:38:59;8.33;;;5.17;;
7289;SDS011;63176;52.678;13.250;2022-11-20T07:41:24;7.30;;;5.20;;
7289;SDS011;63176;52.678;13.250;2022-11-20T07:43:50;15.77;;;6.73;;
7289;SDS011;63176;52.678;13.250;2022-11-20T07:46:16;11.73;;;7.23;;
7289;SDS011;63176;52.678;13.250;2022-11-20T07:48:41;14.40;;;7.80;;
7289;SDS011;63176;52.678;13.250;2022-11-20T07:51:07;21.60;;;8.80;;
7289;SDS011;63176;52.678;13.250;2022-11-20T07:53:32;20.47;;;8.60;;
7289;SDS011;63176;52.678;13.250;2022-11-20T07:56:02;11.90;;;7.00;;
7289;SDS011;63176;52.678;13.250;2022-11-20T07:58:31;14.07;;;6.85;;
7289;SDS011;63176;52.678;13.250;2022-11-20T08:01:02;13.77;;;7.35;;
7289;SDS011;63176;52.678;13.250;2022-11-20T08:03:29;16.30;;;8.70;;
7289;SDS011;63176;52.678;13.250;2022-11-20T08:05:58;10.60;;;6.57;;
7289;SDS011;63176;52.678;13.250;2022-11-20T08:08:27;14.70;;;6.40;;
7289;SDS011;63176;52.678;13.250;2022-11-20T08:10:53;12.35;;;6.43;;
7289;SDS011;63176;52.678;13.250;2022-11-20T08:13:39;13.43;;;6.75;;
7289;SDS011;63176;52.678;13.250;2022-11-20T08:16:23;15.52;;;6.63;;
7289;SDS011;63176;52.678;13.250;2022-11-20T08:18:48;9.90;;;6.43;;
7289;SDS011;63176;52.678;13.250;2022-11-20T08:21:14;12.50;;;6.20;;
7289;SDS011;63176;52.678;13.250;2022-11-20T08:23:40;11.37;;;6.83;;
7289;SDS011;63176;52.678;13.250;2022-11-20T08:26:06;12.93;;;6.07;;
7289;SDS011;63176;52.678;13.250;2022-11-20T08:28:31;11.00;;;5.77;;
7289;SDS011;63176;52.678;13.250;2022-11-20T08:30:58;15.83;;;7.17;;
7289;SDS011;63176;52.678;13.250;2022-11-20T08:33:27;15.55;;;7.00;;
7289;SDS011;63176;52.678;13.250;2022-11-20T08:35:52;15.17;;;7.97;;
7289;SDS011;63176;52.678;13.250;2022-11-20T08:38:18;12.57;;;6.33;;
7289;SDS011;63176;52.678;13.250;2022-11-20T08:40:44;17.23;;;6.77;;
7289;SDS011;63176;52.678;13.250;2022-11-20T08:43:29;8.80;;;5.82;;
7289;SDS011;63176;52.678;13.250;2022-11-20T08:45:56;12.87;;;6.97;;
7289;SDS011;63176;52.678;13.250;2022-11-20T08:48:22;20.05;;;6.68;;
7289;SDS011;63176;52.678;13.250;2022-11-20T08:50:48;11.17;;;6.80;;
7289;SDS011;63176;52.678;13.250;2022-11-20T08:53:13;13.33;;;7.30;;
7289;SDS011;63176;52.678;13.250;2022-11-20T08:55:39;15.93;;;6.97;;
7289;SDS011;63176;52.678;13.250;2022-11-20T08:58:05;14.47;;;6.47;;
7289;SDS011;63176;52.678;13.250;2022-11-20T09:00:32;13.95;;;7.05;;
7289;SDS011;63176;52.678;13.250;2022-11-20T09:02:58;9.52;;;6.25;;
7289;SDS011;63176;52.678;13.250;2022-11-20T09:05:25;15.88;;;7.18;;
7289;SDS011;63176;52.678;13.250;2022-11-20T09:07:51;11.65;;;6.28;;
7289;SDS011;63176;52.678;13.250;2022-11-20T09:10:20;11.65;;;6.68;;
7289;SDS011;63176;52.678;13.250;2022-11-20T09:12:48;14.83;;;7.33;;
7289;SDS011;63176;52.678;13.250;2022-11-20T09:15:14;11.85;;;6.28;;
7289;SDS011;63176;52.678;13.250;2022-11-20T09:17:40;9.40;;;6.30;;
7289;SDS011;63176;52.678;13.250;2022-11-20T09:20:06;15.05;;;7.45;;
7289;SDS011;63176;52.678;13.250;2022-11-20T09:22:32;12.18;;;6.72;;
7289;SDS011;63176;52.678;13.250;2022-11-20T09:24:57;15.70;;;7.17;;
7289;SDS011;63176;52.678;13.250;2022-11-20T09:27:23;10.70;;;6.70;;
7289;SDS011;63176;52.678;13.250;2022-11-20T09:29:49;10.63;;;5.93;;
7289;SDS011;63176;52.678;13.250;2022-11-20T09:32:15;8.50;;;5.20;;
7289;SDS011;63176;52.678;13.250;2022-11-20T09:34:41;10.10;;;6.10;;
7289;SDS011;63176;52.678;13.250;2022-11-20T09:37:06;16.30;;;8.00;;
7289;SDS011;63176;52.678;13.250;2022-11-20T09:39:32;12.33;;;7.10;;
7289;SDS011;63176;52.678;13.250;2022-11-20T09:45:05;9.48;;;5.40;;
7289;SDS011;63176;52.678;13.250;2022-11-20T09:50:45;12.75;;;7.00;;
7289;SDS011;63176;52.678;13.250;2022-11-20T09:56:07;14.13;;;6.72;;
7289;SDS011;63176;52.678;13.250;2022-11-20T10:01:14;16.65;;;6.97;;
7289;SDS011;63176;52.678;13.250;2022-11-20T10:06:21;9.40;;;5.90;;
7289;SDS011;63176;52.678;13.250;2022-11-20T10:09:40;11.35;;;6.75;;
7289;SDS011;63176;52.678;13.250;2022-11-20T10:11:46;11.80;;;6.70;;
7289;SDS011;63176;52.678;13.250;2022-11-20T10:14:47;12.93;;;6.03;;
7289;SDS011;63176;52.678;13.250;2022-11-20T10:17:40;13.15;;;7.28;;
7289;SDS011;63176;52.678;13.250;2022-11-20T10:31:14;10.93;;;6.65;;
7289;SDS011;63176;52.678;13.250;2022-11-20T10:34:00;10.05;;;6.38;;
7289;SDS011;63176;52.678;13.250;2022-11-20T10:36:33;10.57;;;5.78;;
7289;SDS011;63176;52.678;13.250;2022-11-20T10:39:14;10.63;;;6.35;;
7289;SDS011;63176;52.678;13.250;2022-11-20T10:41:48;8.30;;;4.53;;
7289;SDS011;63176;52.678;13.250;2022-11-20T10:44:17;9.95;;;5.88;;
7289;SDS011;63176;52.678;13.250;2022-11-20T10:47:04;10.52;;;5.82;;
7289;SDS011;63176;52.678;13.250;2022-11-20T10:49:35;11.23;;;5.70;;
7289;SDS011;63176;52.678;13.250;2022-11-20T10:52:07;12.27;;;7.13;;
7289;SDS011;63176;52.678;13.250;2022-11-20T11:00:06;7.82;;;4.85;;
7289;SDS011;63176;52.678;13.250;2022-11-20T11:08:02;9.13;;;5.47;;
7289;SDS011;63176;52.678;13.250;2022-11-20T11:10:45;8.85;;;4.78;;
7289;SDS011;63176;52.678;13.250;2022-11-20T11:13:19;10.95;;;5.97;;
7289;SDS011;63176;52.678;13.250;2022-11-20T11:15:53;11.85;;;5.53;;
7289;SDS011;63176;52.678;13.250;2022-11-20T11:18:37;8.55;;;5.00;;
7289;SDS011;63176;52.678;13.250;2022-11-20T11:21:03;8.55;;;5.15;;
7289;SDS011;63176;52.678;13.250;2022-11-20T11:23:37;10.10;;;5.03;;
7289;SDS011;63176;52.678;13.250;2022-11-20T11:26:17;9.60;;;5.60;;
7289;SDS011;63176;52.678;13.250;2022-11-20T11:28:55;7.38;;;5.05;;
7289;SDS011;63176;52.678;13.250;2022-11-20T11:31:34;12.15;;;6.00;;
7289;SDS011;63176;52.678;13.250;2022-11-20T11:34:13;9.95;;;5.40;;
7289;SDS011;63176;52.678;13.250;2022-11-20T11:36:41;11.05;;;6.20;;
7289;SDS011;63176;52.678;13.250;2022-11-20T11:39:17;10.23;;;5.70;;
7289;SDS011;63176;52.678;13.250;2022-11-20T11:41:44;10.90;;;6.13;;
7289;SDS011;63176;52.678;13.250;2022-11-20T11:44:19;9.25;;;4.78;;
7289;SDS011;63176;52.678;13.250;2022-11-20T11:47:08;8.73;;;5.45;;
7289;SDS011;63176;52.678;13.250;2022-11-20T11:49:42;8.88;;;5.53;;
7289;SDS011;63176;52.678;13.250;2022-11-20T11:52:15;9.50;;;5.37;;
7289;SDS011;63176;52.678;13.250;2022-11-20T11:54:49;8.63;;;5.55;;
7289;SDS011;63176;52.678;13.250;2022-11-20T12:05:29;11.30;;;5.47;;
7289;SDS011;63176;52.678;13.250;2022-11-20T12:08:03;8.38;;;4.85;;
7289;SDS011;63176;52.678;13.250;2022-11-20T12:10:56;9.65;;;5.18;;
7289;SDS011;63176;52.678;13.250;2022-11-20T12:16:05;9.32;;;5.45;;
7289;SDS011;63176;52.678;13.250;2022-11-20T12:18:34;12.10;;;5.13;;
7289;SDS011;63176;52.678;13.250;2022-11-20T12:21:07;8.90;;;5.00;;
7289;SDS011;63176;52.678;13.250;2022-11-20T12:26:26;9.80;;;4.80;;
7289;SDS011;63176;52.678;13.250;2022-11-20T12:39:58;6.32;;;3.65;;
7289;SDS011;63176;52.678;13.250;2022-11-20T12:46:14;8.25;;;4.18;;
7289;SDS011;63176;52.678;13.250;2022-11-20T12:51:58;9.07;;;4.47;;
7289;SDS011;63176;52.678;13.250;2022-11-20T12:57:29;8.13;;;4.40;;
7289;SDS011;63176;52.678;13.250;2022-11-20T13:00:11;8.20;;;3.58;;
7289;SDS011;63176;52.678;13.250;2022-11-20T13:08:38;6.72;;;4.22;;
7289;SDS011;63176;52.678;13.250;2022-11-20T13:11:26;10.85;;;5.45;;
7289;SDS011;63176;52.678;13.250;2022-11-20T13:19:22;13.73;;;4.95;;
7289;SDS011;63176;52.678;13.250;2022-11-20T13:21:49;8.38;;;5.10;;
7289;SDS011;63176;52.678;13.250;2022-11-20T13:26:44;7.65;;;4.85;;
7289;SDS011;63176;52.678;13.250;2022-11-20T13:29:16;10.00;;;5.20;;
7289;SDS011;63176;52.678;13.250;2022-11-20T13:31:45;5.22;;;4.03;;
7289;SDS011;63176;52.678;13.250;2022-11-20T13:34:13;7.47;;;4.93;;
7289;SDS011;63176;52.678;13.250;2022-11-20T13:36:49;12.30;;;4.50;;
7289;SDS011;63176;52.678;13.250;2022-11-20T13:39:27;9.20;;;4.97;;
7289;SDS011;63176;52.678;13.250;2022-11-20T13:41:55;9.32;;;4.70;;
7289;SDS011;63176;52.678;13.250;2022-11-20T13:44:25;9.85;;;4.85;;
7289;SDS011;63176;52.678;13.250;2022-11-20T13:46:54;8.32;;;4.53;;
7289;SDS011;63176;52.678;13.250;2022-11-20T13:49:25;8.00;;;5.00;;
7289;SDS011;63176;52.678;13.250;2022-11-20T14:00:14;8.10;;;5.40;;
7289;SDS011;63176;52.678;13.250;2022-11-20T14:02:42;10.93;;;6.40;;
7289;SDS011;63176;52.678;13.250;2022-11-20T14:05:27;9.38;;;5.15;;
7289;SDS011;63176;52.678;13.250;2022-11-20T14:07:56;7.25;;;4.70;;
7289;SDS011;63176;52.678;13.250;2022-11-20T14:10:25;8.05;;;4.82;;
7289;SDS011;63176;52.678;13.250;2022-11-20T14:12:52;8.88;;;4.55;;
7289;SDS011;63176;52.678;13.250;2022-11-20T14:17:58;8.75;;;4.93;;
7289;SDS011;63176;52.678;13.250;2022-11-20T14:20:26;8.05;;;3.88;;
7289;SDS011;63176;52.678;13.250;2022-11-20T14:22:54;9.07;;;4.63;;
7289;SDS011;63176;52.678;13.250;2022-11-20T14:25:24;7.20;;;4.73;;
7289;SDS011;63176;52.678;13.250;2022-11-20T14:27:57;8.77;;;4.55;;
7289;SDS011;63176;52.678;13.250;2022-11-20T14:30:28;10.65;;;5.00;;
7289;SDS011;63176;52.678;13.250;2022-11-20T14:33:09;8.77;;;5.55;;
7289;SDS011;63176;52.678;13.250;2022-11-20T14:35:40;8.85;;;4.32;;
7289;SDS011;63176;52.678;13.250;2022-11-20T14:38:13;9.98;;;4.75;;
7289;SDS011;63176;52.678;13.250;2022-11-20T14:40:40;8.10;;;4.90;;
7289;SDS011;63176;52.678;13.250;2022-11-20T14:45:56;9.63;;;5.07;;
7289;SDS011;63176;52.678;13.250;2022-11-20T14:48:32;8.90;;;4.55;;
7289;SDS011;63176;52.678;13.250;2022-11-20T14:51:03;7.10;;;4.60;;
7289;SDS011;63176;52.678;13.250;2022-11-20T14:53:29;11.73;;;5.10;;
7289;SDS011;63176;52.678;13.250;2022-11-20T14:55:58;12.87;;;3.90;;
7289;SDS011;63176;52.678;13.250;2022-11-20T14:58:26;9.05;;;5.15;;
7289;SDS011;63176;52.678;13.250;2022-11-20T15:01:03;6.32;;;3.85;;
7289;SDS011;63176;52.678;13.250;2022-11-20T15:03:31;11.82;;;5.00;;
7289;SDS011;63176;52.678;13.250;2022-11-20T15:06:05;8.10;;;4.95;;
7289;SDS011;63176;52.678;13.250;2022-11-20T15:08:32;11.05;;;5.88;;
7289;SDS011;63176;52.678;13.250;2022-11-20T15:10:58;7.35;;;4.53;;
7289;SDS011;63176;52.678;13.250;2022-11-20T15:13:34;12.80;;;5.03;;
7289;SDS011;63176;52.678;13.250;2022-11-20T15:16:03;8.30;;;4.35;;
7289;SDS011;63176;52.678;13.250;2022-11-20T15:18:39;8.95;;;4.95;;
7289;SDS011;63176;52.678;13.250;2022-11-20T15:21:15;9.70;;;5.20;;
7289;SDS011;63176;52.678;13.250;2022-11-20T15:23:43;7.15;;;4.97;;
7289;SDS011;63176;52.678;13.250;2022-11-20T15:26:09;10.10;;;4.77;;
7289;SDS011;63176;52.678;13.250;2022-11-20T15:28:38;9.18;;;4.55;;
7289;SDS011;63176;52.678;13.250;2022-11-20T15:31:06;9.32;;;4.85;;
7289;SDS011;63176;52.678;13.250;2022-11-20T15:33:32;10.85;;;4.35;;
7289;SDS011;63176;52.678;13.250;2022-11-20T15:35:59;9.23;;;4.95;;
7289;SDS011;63176;52.678;13.250;2022-11-20T15:38:25;9.60;;;4.15;;
7289;SDS011;63176;52.678;13.250;2022-11-20T15:40:50;9.73;;;5.20;;
7289;SDS011;63176;52.678;13.250;2022-11-20T15:43:16;11.33;;;5.50;;
7289;SDS011;63176;52.678;13.250;2022-11-20T15:45:50;8.60;;;5.20;;
7289;SDS011;63176;52.678;13.250;2022-11-20T15:48:29;7.43;;;4.28;;
7289;SDS011;63176;52.678;13.250;2022-11-20T15:53:46;7.63;;;4.20;;
7289;SDS011;63176;52.678;13.250;2022-11-20T15:56:12;8.93;;;4.03;;
7289;SDS011;63176;52.678;13.250;2022-11-20T15:58:38;9.10;;;4.72;;
7289;SDS011;63176;52.678;13.250;2022-11-20T16:01:05;6.97;;;3.92;;
7289;SDS011;63176;52.678;13.250;2022-11-20T16:03:35;12.35;;;4.95;;
7289;SDS011;63176;52.678;13.250;2022-11-20T16:06:00;10.10;;;5.20;;
7289;SDS011;63176;52.678;13.250;2022-11-20T16:08:26;9.00;;;4.97;;
7289;SDS011;63176;52.678;13.250;2022-11-20T16:10:51;6.43;;;4.50;;
7289;SDS011;63176;52.678;13.250;2022-11-20T16:13:17;9.73;;;4.73;;
7289;SDS011;63176;52.678;13.250;2022-11-20T16:16:05;7.25;;;4.30;;
7289;SDS011;63176;52.678;13.250;2022-11-20T16:18:35;6.13;;;4.13;;
7289;SDS011;63176;52.678;13.250;2022-11-20T16:21:01;9.23;;;5.33;;
7289;SDS011;63176;52.678;13.250;2022-11-20T16:23:27;6.68;;;3.85;;
7289;SDS011;63176;52.678;13.250;2022-11-20T16:25:53;8.97;;;4.80;;
7289;SDS011;63176;52.678;13.250;2022-11-20T16:28:19;8.00;;;4.57;;
7289;SDS011;63176;52.678;13.250;2022-11-20T16:30:45;10.60;;;4.50;;
7289;SDS011;63176;52.678;13.250;2022-11-20T16:33:12;7.03;;;4.45;;
7289;SDS011;63176;52.678;13.250;2022-11-20T16:35:39;9.32;;;5.30;;
7289;SDS011;63176;52.678;13.250;2022-11-20T16:38:05;6.90;;;5.00;;
7289;SDS011;63176;52.678;13.250;2022-11-20T16:40:31;9.10;;;5.20;;
7289;SDS011;63176;52.678;13.250;2022-11-20T16:42:57;7.50;;;5.03;;
7289;SDS011;63176;52.678;13.250;2022-11-20T16:45:30;8.68;;;5.00;;